createdAt,value
2017-11-06T00:01:27.587Z,1.47
2017-11-06T00:03:55.009Z,3.07
2017-11-06T00:06:23.548Z,2.10
2017-11-06T00:08:50.989Z,2.50
2017-11-06T00:11:18.425Z,3.17
2017-11-06T00:13:45.869Z,2.00
2017-11-06T00:16:13.376Z,2.90
2017-11-06T00:18:40.820Z,2.20
2017-11-06T00:21:08.260Z,1.30
2017-11-06T00:23:36.049Z,2.33
2017-11-06T00:26:03.600Z,2.47
2017-11-06T00:28:31.009Z,1.67
2017-11-06T00:30:59.226Z,1.97
2017-11-06T00:33:26.669Z,2.00
2017-11-06T00:35:54.102Z,1.93
2017-11-06T00:38:22.314Z,2.00
2017-11-06T00:40:50.093Z,2.40
2017-11-06T00:43:17.556Z,1.83
2017-11-06T00:45:45.009Z,2.00
2017-11-06T00:48:12.464Z,1.93
2017-11-06T00:50:39.905Z,2.50
2017-11-06T00:53:07.402Z,1.17
2017-11-06T00:55:34.841Z,1.60
2017-11-06T00:58:02.605Z,1.83
2017-11-06T01:00:30.032Z,2.23
2017-11-06T01:02:57.453Z,2.43
2017-11-06T01:05:25.689Z,3.53
2017-11-06T01:07:53.124Z,1.70
2017-11-06T01:10:20.570Z,1.80
2017-11-06T01:12:48.003Z,1.00
2017-11-06T01:15:15.733Z,1.87
2017-11-06T01:17:43.164Z,2.00
2017-11-06T01:20:10.649Z,1.70
2017-11-06T01:22:38.108Z,1.77
2017-11-06T01:25:05.535Z,2.90
2017-11-06T01:27:32.997Z,1.87
2017-11-06T01:30:00.437Z,1.23
2017-11-06T01:32:28.141Z,1.73
2017-11-06T01:34:55.579Z,2.37
2017-11-06T01:37:23.009Z,1.73
2017-11-06T01:39:50.458Z,1.37
2017-11-06T01:42:18.653Z,1.63
2017-11-06T01:44:46.138Z,1.77
2017-11-06T01:47:13.690Z,1.80
2017-11-06T01:49:41.465Z,1.30
2017-11-06T01:52:08.897Z,2.30
2017-11-06T01:54:36.375Z,3.43
2017-11-06T01:57:03.825Z,1.40
2017-11-06T01:59:31.290Z,1.40
2017-11-06T02:01:58.866Z,1.93
2017-11-06T02:04:26.297Z,1.50
2017-11-06T02:06:53.985Z,2.37
2017-11-06T02:09:21.520Z,1.13
2017-11-06T02:11:48.945Z,1.20
2017-11-06T02:14:17.149Z,1.80
2017-11-06T02:16:44.577Z,1.57
2017-11-06T02:19:12.018Z,1.20
2017-11-06T02:21:40.208Z,1.60
2017-11-06T02:24:08.743Z,2.20
2017-11-06T02:26:36.168Z,1.93
2017-11-06T02:29:03.665Z,2.70
2017-11-06T02:31:31.114Z,2.00
2017-11-06T02:33:58.537Z,1.13
2017-11-06T02:36:26.024Z,1.70
2017-11-06T02:38:53.481Z,2.37
2017-11-06T02:41:21.250Z,1.80
2017-11-06T02:43:48.706Z,2.23
2017-11-06T02:46:16.137Z,2.00
2017-11-06T02:48:43.586Z,1.83
2017-11-06T02:51:11.077Z,1.70
2017-11-06T02:53:38.526Z,1.97
2017-11-06T02:56:05.958Z,2.33
2017-11-06T02:58:33.759Z,2.30
2017-11-06T03:01:01.218Z,2.40
2017-11-06T03:03:28.641Z,1.87
2017-11-06T03:05:56.090Z,1.40
2017-11-06T03:08:23.588Z,1.60
2017-11-06T03:10:51.126Z,1.77
2017-11-06T03:13:18.537Z,2.93
2017-11-06T03:15:47.075Z,2.20
2017-11-06T03:18:14.501Z,2.17
2017-11-06T03:20:41.994Z,2.83
2017-11-06T03:23:09.433Z,1.63
2017-11-06T03:25:36.869Z,2.90
2017-11-06T03:28:05.202Z,2.73
2017-11-06T03:30:32.642Z,2.70
2017-11-06T03:33:00.385Z,1.70
2017-11-06T03:35:27.869Z,1.90
2017-11-06T03:37:55.304Z,1.87
2017-11-06T03:40:22.750Z,1.83
2017-11-06T03:42:50.241Z,1.67
2017-11-06T03:45:17.681Z,1.80
2017-11-06T03:47:45.105Z,2.27
2017-11-06T03:50:13.569Z,1.67
2017-11-06T03:52:41.089Z,1.53
2017-11-06T03:55:08.551Z,1.23
2017-11-06T03:57:36.130Z,3.10
2017-11-06T04:00:03.563Z,1.73
2017-11-06T04:02:31.029Z,1.13
2017-11-06T04:04:58.619Z,1.87
2017-11-06T04:07:26.350Z,2.53
2017-11-06T04:09:53.902Z,2.53
2017-11-06T04:12:21.368Z,1.40
2017-11-06T04:14:48.811Z,3.17
2017-11-06T04:17:16.244Z,2.50
2017-11-06T04:19:43.681Z,1.87
2017-11-06T04:22:11.881Z,1.30
2017-11-06T04:24:39.574Z,2.07
2017-11-06T04:27:07.010Z,3.10
2017-11-06T04:29:34.456Z,1.90
2017-11-06T04:32:02.651Z,2.13
2017-11-06T04:34:30.080Z,1.70
2017-11-06T04:36:57.587Z,2.90
2017-11-06T04:39:25.022Z,2.97
2017-11-06T04:41:52.713Z,2.00
2017-11-06T04:44:20.138Z,1.67
2017-11-06T04:46:47.613Z,1.70
2017-11-06T04:49:15.058Z,4.33
2017-11-06T04:51:42.524Z,2.73
2017-11-06T04:54:09.949Z,2.60
2017-11-06T04:56:37.440Z,2.50
2017-11-06T04:59:05.205Z,2.60
2017-11-06T05:01:32.646Z,2.83
2017-11-06T05:04:00.073Z,2.30
2017-11-06T05:06:28.272Z,2.97
2017-11-06T05:08:55.709Z,2.30
2017-11-06T05:11:23.925Z,2.50
2017-11-06T05:13:51.354Z,3.20
2017-11-06T05:16:19.106Z,2.27
2017-11-06T05:18:47.325Z,2.13
2017-11-06T05:21:14.751Z,2.43
2017-11-06T05:23:42.237Z,2.20
2017-11-06T05:26:09.710Z,2.73
2017-11-06T05:28:37.152Z,3.40
2017-11-06T05:31:04.583Z,2.40
2017-11-06T05:33:32.274Z,2.67
2017-11-06T05:35:59.704Z,2.93
2017-11-06T05:38:27.133Z,2.57
2017-11-06T05:40:55.336Z,1.87
2017-11-06T05:43:22.816Z,2.50
2017-11-06T05:45:50.241Z,2.17
2017-11-06T05:48:18.435Z,2.67
2017-11-06T05:50:46.180Z,1.97
2017-11-06T05:53:13.607Z,2.77
2017-11-06T05:55:41.136Z,2.90
2017-11-06T05:58:08.582Z,2.63
2017-11-06T06:00:36.023Z,1.83
2017-11-06T06:03:03.461Z,2.67
2017-11-06T06:05:31.661Z,4.13
2017-11-06T06:07:59.449Z,2.90
2017-11-06T06:10:26.879Z,3.27
2017-11-06T06:12:54.309Z,2.60
2017-11-06T06:15:22.526Z,2.93
2017-11-06T06:17:49.964Z,3.27
2017-11-06T06:20:17.409Z,2.67
2017-11-06T06:22:45.629Z,2.83
2017-11-06T06:25:13.393Z,3.53
2017-11-06T06:27:40.820Z,2.67
2017-11-06T06:30:08.259Z,2.30
2017-11-06T06:32:36.470Z,2.80
2017-11-06T06:35:03.937Z,1.40
2017-11-06T06:37:31.380Z,3.60
2017-11-06T06:40:00.042Z,2.67
2017-11-06T06:42:28.558Z,2.33
2017-11-06T06:44:55.980Z,2.87
2017-11-06T06:47:23.410Z,3.43
2017-11-06T06:49:50.860Z,4.90
2017-11-06T06:52:18.285Z,4.40
2017-11-06T06:54:45.741Z,2.97
2017-11-06T06:57:13.202Z,3.77
2017-11-06T06:59:40.958Z,2.90
2017-11-06T07:02:08.406Z,3.50
2017-11-06T07:04:35.813Z,2.67
2017-11-06T07:07:04.033Z,2.90
2017-11-06T07:09:31.465Z,3.60
2017-11-06T07:11:59.803Z,3.40
2017-11-06T07:14:27.245Z,3.87
2017-11-06T07:16:55.009Z,5.53
2017-11-06T07:19:22.432Z,3.13
2017-11-06T07:21:49.908Z,3.47
2017-11-06T07:24:17.333Z,4.23
2017-11-06T07:26:44.770Z,3.30
2017-11-06T07:29:12.224Z,3.40
2017-11-06T07:31:39.686Z,3.67
2017-11-06T07:34:09.068Z,3.80
2017-11-06T07:36:36.481Z,3.10
2017-11-06T07:39:03.909Z,3.67
2017-11-06T07:41:32.853Z,4.17
2017-11-06T07:44:00.281Z,4.03
2017-11-06T07:46:27.718Z,4.10
2017-11-06T07:48:55.957Z,3.90
2017-11-06T07:51:23.717Z,3.50
2017-11-06T07:53:51.141Z,3.80
2017-11-06T07:56:18.575Z,4.03
2017-11-06T07:58:46.809Z,3.30
2017-11-06T08:01:14.241Z,4.00
2017-11-06T08:03:41.710Z,4.93
2017-11-06T08:06:09.135Z,4.00
2017-11-06T08:08:36.632Z,4.70
2017-11-06T08:11:04.082Z,4.80
2017-11-06T08:13:31.512Z,5.70
2017-11-06T08:15:59.829Z,3.43
2017-11-06T08:18:27.257Z,4.13
2017-11-06T08:20:54.689Z,3.77
2017-11-06T08:23:22.906Z,3.80
2017-11-06T08:25:50.341Z,4.77
2017-11-06T08:28:17.782Z,4.50
2017-11-06T08:30:45.978Z,5.23
2017-11-06T08:33:13.405Z,4.60
2017-11-06T08:35:41.641Z,4.33
2017-11-06T08:38:09.078Z,4.43
2017-11-06T08:40:36.554Z,4.57
2017-11-06T08:43:03.983Z,4.87
2017-11-06T08:45:31.408Z,5.30
2017-11-06T08:47:59.631Z,4.40
2017-11-06T08:50:27.066Z,4.70
2017-11-06T08:52:54.505Z,4.53
2017-11-06T08:55:22.701Z,5.77
2017-11-06T08:57:50.128Z,5.00
2017-11-06T09:00:18.339Z,4.80
2017-11-06T09:02:45.766Z,4.47
2017-11-06T09:05:13.985Z,5.33
2017-11-06T09:07:41.417Z,5.60
2017-11-06T09:10:09.615Z,5.10
2017-11-06T09:12:37.081Z,5.10
2017-11-06T09:15:04.513Z,3.80
2017-11-06T09:17:32.210Z,5.03
2017-11-06T09:19:59.640Z,4.73
2017-11-06T09:22:27.069Z,5.87
2017-11-06T09:24:55.276Z,5.37
2017-11-06T09:27:22.709Z,3.93
2017-11-06T09:29:50.449Z,5.10
2017-11-06T09:32:17.877Z,4.07
2017-11-06T09:34:45.316Z,4.57
2017-11-06T09:37:12.760Z,4.60
2017-11-06T09:39:40.205Z,4.23
2017-11-06T09:42:08.708Z,4.67
2017-11-06T09:44:36.117Z,4.00
2017-11-06T09:47:03.547Z,4.07
2017-11-06T09:49:30.989Z,4.07
2017-11-06T09:51:58.421Z,3.73
2017-11-06T09:54:26.126Z,4.87
2017-11-06T09:56:53.582Z,4.27
2017-11-06T09:59:21.028Z,3.63
2017-11-06T10:01:48.473Z,3.90
2017-11-06T10:06:43.710Z,5.23
2017-11-06T10:09:11.146Z,4.10
2017-11-06T10:11:38.572Z,3.70
2017-11-06T10:14:06.786Z,4.80
2017-11-06T10:16:34.215Z,3.33
2017-11-06T10:19:02.742Z,3.40
2017-11-06T10:21:30.177Z,3.20
2017-11-06T10:23:57.612Z,3.67
2017-11-06T10:26:25.054Z,4.17
2017-11-06T10:28:53.248Z,4.57
2017-11-06T10:31:20.692Z,3.53
2017-11-06T10:33:48.122Z,3.63
2017-11-06T10:36:15.808Z,3.57
2017-11-06T10:38:44.015Z,3.70
2017-11-06T10:41:11.432Z,3.40
2017-11-06T10:43:39.645Z,3.67
2017-11-06T10:46:07.082Z,3.70
2017-11-06T10:48:35.286Z,4.30
2017-11-06T10:51:02.717Z,3.83
2017-11-06T10:53:30.526Z,3.30
2017-11-06T10:55:57.950Z,2.60
2017-11-06T10:58:25.377Z,2.33
2017-11-06T11:00:53.589Z,3.37
2017-11-06T11:03:21.019Z,3.10
2017-11-06T11:05:49.235Z,4.07
2017-11-06T11:08:16.657Z,3.80
2017-11-06T11:10:45.104Z,3.63
2017-11-06T11:13:12.536Z,3.47
2017-11-06T11:15:39.961Z,3.50
2017-11-06T11:18:07.408Z,3.00
2017-11-06T11:20:35.596Z,4.53
2017-11-06T11:23:03.084Z,2.50
2017-11-06T11:25:30.510Z,4.10
2017-11-06T11:27:58.301Z,3.80
2017-11-06T11:30:25.733Z,3.60
2017-11-06T11:32:53.165Z,3.57
2017-11-06T11:35:21.398Z,4.00
2017-11-06T11:37:48.832Z,3.47
2017-11-06T11:40:16.282Z,4.50
2017-11-06T11:42:43.713Z,4.47
2017-11-06T11:45:12.242Z,4.10
2017-11-06T11:47:39.702Z,3.50
2017-11-06T11:50:07.138Z,3.87
2017-11-06T11:52:34.586Z,2.43
2017-11-06T11:55:02.069Z,2.30
2017-11-06T11:57:30.276Z,1.97
2017-11-06T11:59:57.706Z,2.53
2017-11-06T12:02:25.407Z,3.47
2017-11-06T12:04:52.833Z,2.30
2017-11-06T12:07:20.266Z,2.30
2017-11-06T12:09:47.740Z,3.27
2017-11-06T12:12:15.177Z,1.83
2017-11-06T12:14:42.621Z,3.03
2017-11-06T12:17:10.056Z,3.27
2017-11-06T12:19:37.778Z,2.63
2017-11-06T12:22:05.209Z,2.90
2017-11-06T12:24:32.641Z,3.43
2017-11-06T12:27:00.974Z,3.20
2017-11-06T12:29:28.432Z,2.00
2017-11-06T12:31:56.193Z,3.10
2017-11-06T12:34:23.632Z,2.60
2017-11-06T12:36:51.062Z,3.40
2017-11-06T12:39:19.269Z,3.60
2017-11-06T12:41:46.705Z,3.00
2017-11-06T12:44:14.147Z,2.73
2017-11-06T12:46:41.580Z,2.70
2017-11-06T12:49:09.273Z,2.70
2017-11-06T12:51:36.705Z,2.23
2017-11-06T12:54:04.132Z,3.60
2017-11-06T12:56:31.582Z,2.93
2017-11-06T12:58:59.016Z,2.70
2017-11-06T13:01:26.712Z,2.50
2017-11-06T13:03:54.161Z,2.77
2017-11-06T13:06:21.589Z,4.10
2017-11-06T13:08:49.039Z,2.53
2017-11-06T13:11:16.465Z,3.17
2017-11-06T13:13:43.908Z,2.70
2017-11-06T13:16:11.332Z,3.07
2017-11-06T13:18:39.124Z,3.37
2017-11-06T13:21:06.554Z,3.23
2017-11-06T13:23:33.985Z,3.03
2017-11-06T13:26:01.468Z,2.60
2017-11-06T13:28:28.873Z,2.83
2017-11-06T13:30:56.314Z,1.90
2017-11-06T13:33:23.750Z,2.17
2017-11-06T13:35:51.518Z,2.70
2017-11-06T13:38:18.942Z,2.17
2017-11-06T13:40:46.364Z,2.13
2017-11-06T13:43:13.805Z,1.90
2017-11-06T13:45:41.249Z,1.60
2017-11-06T13:48:08.796Z,2.23
2017-11-06T13:50:36.205Z,2.40
2017-11-06T13:53:04.740Z,2.83
2017-11-06T13:55:32.184Z,1.83
2017-11-06T13:57:59.618Z,2.93
2017-11-06T14:00:27.057Z,1.50
2017-11-06T14:02:55.290Z,1.53
2017-11-06T14:05:22.734Z,1.80
2017-11-06T14:07:50.219Z,1.40
2017-11-06T14:10:17.973Z,1.87
2017-11-06T14:12:45.437Z,1.97
2017-11-06T14:15:12.881Z,1.60
2017-11-06T14:17:40.347Z,1.57
2017-11-06T14:20:07.788Z,1.90
2017-11-06T14:22:35.237Z,1.33
2017-11-06T14:25:02.669Z,1.80
2017-11-06T14:27:30.377Z,3.80
2017-11-06T14:29:57.804Z,2.37
2017-11-06T14:32:25.238Z,2.60
2017-11-06T14:34:53.477Z,2.70
2017-11-06T14:37:20.894Z,1.57
2017-11-06T14:39:48.342Z,1.93
2017-11-06T14:42:15.769Z,2.27
2017-11-06T14:44:43.506Z,1.90
2017-11-06T14:47:10.944Z,1.53
2017-11-06T14:49:38.416Z,2.13
2017-11-06T14:52:05.862Z,2.13
2017-11-06T14:54:33.290Z,1.90
2017-11-06T14:57:00.792Z,1.73
2017-11-06T14:59:28.236Z,2.33
2017-11-06T15:01:55.973Z,1.80
2017-11-06T15:04:23.485Z,1.60
2017-11-06T15:06:51.021Z,1.43
2017-11-06T15:09:18.485Z,2.47
2017-11-06T15:11:45.913Z,2.47
2017-11-06T15:14:13.380Z,1.50
2017-11-06T15:16:40.798Z,1.20
2017-11-06T15:19:09.252Z,1.97
2017-11-06T15:21:37.518Z,1.73
2017-11-06T15:24:04.947Z,1.60
2017-11-06T15:26:32.380Z,1.80
2017-11-06T15:29:00.694Z,2.83
2017-11-06T15:31:28.137Z,2.20
2017-11-06T15:33:55.570Z,2.07
2017-11-06T15:36:24.105Z,2.03
2017-11-06T15:38:51.542Z,1.47
2017-11-06T15:41:18.978Z,2.43
2017-11-06T15:43:46.485Z,1.77
2017-11-06T15:46:13.921Z,2.07
2017-11-06T15:48:41.367Z,1.97
2017-11-06T15:51:08.793Z,1.90
2017-11-06T15:53:37.262Z,2.53
2017-11-06T15:56:04.685Z,2.27
2017-11-06T15:58:32.145Z,1.50
2017-11-06T16:00:59.602Z,2.30
2017-11-06T16:03:27.057Z,2.73
2017-11-06T16:05:54.612Z,1.50
2017-11-06T16:08:22.052Z,2.57
2017-11-06T16:10:49.737Z,2.80
2017-11-06T16:13:17.170Z,3.33
2017-11-06T16:15:44.661Z,2.57
2017-11-06T16:18:12.122Z,3.43
2017-11-06T16:20:41.168Z,2.87
2017-11-06T16:23:08.606Z,3.07
2017-11-06T16:25:36.822Z,3.90
2017-11-06T16:28:04.588Z,4.97
2017-11-06T16:30:32.049Z,4.33
2017-11-06T16:32:59.472Z,4.13
2017-11-06T16:35:26.965Z,3.83
2017-11-06T16:37:54.396Z,2.60
2017-11-06T16:40:21.829Z,3.27
2017-11-06T16:42:50.073Z,3.13
2017-11-06T16:45:17.833Z,3.93
2017-11-06T16:47:45.266Z,3.23
2017-11-06T16:50:12.748Z,3.37
2017-11-06T16:52:40.197Z,3.50
2017-11-06T16:55:07.624Z,3.30
2017-11-06T16:57:35.195Z,4.50
2017-11-06T17:00:02.601Z,3.63
2017-11-06T17:02:30.338Z,4.27
2017-11-06T17:04:57.766Z,4.57
2017-11-06T17:07:25.194Z,4.90
2017-11-06T17:09:53.389Z,3.67
2017-11-06T17:12:20.826Z,4.80
2017-11-06T17:14:49.162Z,3.73
2017-11-06T17:17:16.582Z,2.97
2017-11-06T17:19:44.379Z,4.47
2017-11-06T17:22:11.804Z,3.20
2017-11-06T17:24:39.228Z,3.90
2017-11-06T17:27:07.439Z,4.57
2017-11-06T17:29:34.863Z,2.47
2017-11-06T17:32:03.822Z,3.50
2017-11-06T17:34:31.277Z,3.87
2017-11-06T17:36:59.056Z,2.97
2017-11-06T17:39:26.482Z,4.03
2017-11-06T17:41:53.912Z,3.80
2017-11-06T17:44:22.119Z,2.20
2017-11-06T17:46:49.533Z,3.13
2017-11-06T17:49:17.738Z,2.93
2017-11-06T17:51:45.169Z,3.70
2017-11-06T17:54:13.633Z,3.87
2017-11-06T17:56:41.057Z,2.70
2017-11-06T17:59:08.494Z,2.80
2017-11-06T18:01:35.930Z,3.40
2017-11-06T18:04:04.127Z,3.83
2017-11-06T18:06:31.913Z,2.53
2017-11-06T18:08:59.349Z,3.50
2017-11-06T18:11:26.778Z,3.00
2017-11-06T18:13:54.983Z,3.20
2017-11-06T18:16:22.401Z,2.73
2017-11-06T18:18:50.608Z,2.77
2017-11-06T18:21:18.044Z,2.17
2017-11-06T18:23:46.552Z,2.10
2017-11-06T18:26:13.973Z,2.17
2017-11-06T18:28:42.166Z,3.13
2017-11-06T18:31:09.604Z,2.97
2017-11-06T18:33:37.829Z,2.70
2017-11-06T18:36:05.589Z,6.33
2017-11-06T18:38:33.013Z,3.10
2017-11-06T18:41:00.436Z,2.80
2017-11-06T18:43:27.962Z,3.40
2017-11-06T18:45:55.425Z,4.47
2017-11-06T18:48:22.992Z,4.50
2017-11-06T18:50:50.448Z,4.13
2017-11-06T18:53:18.211Z,3.50
2017-11-06T18:55:45.641Z,3.73
2017-11-06T18:58:13.063Z,3.80
2017-11-06T19:00:41.284Z,2.13
2017-11-06T19:03:08.712Z,3.27
2017-11-06T19:05:36.589Z,2.20
2017-11-06T19:08:04.779Z,2.17
2017-11-06T19:10:32.470Z,1.80
2017-11-06T19:12:59.897Z,3.73
2017-11-06T19:15:27.343Z,3.20
2017-11-06T19:17:55.540Z,1.53
2017-11-06T19:20:22.999Z,2.67
2017-11-06T19:22:50.446Z,3.93
2017-11-06T19:25:17.876Z,6.50
2017-11-06T19:27:46.492Z,3.07
2017-11-06T19:30:13.961Z,1.83
2017-11-06T19:32:41.382Z,3.03
2017-11-06T19:35:08.837Z,4.33
2017-11-06T19:37:38.007Z,4.90
2017-11-06T19:40:05.451Z,3.10
2017-11-06T19:42:33.002Z,3.30
2017-11-06T19:45:00.760Z,2.73
2017-11-06T19:47:28.181Z,2.60
2017-11-06T19:49:55.669Z,2.60
2017-11-06T19:52:23.126Z,2.90
2017-11-06T19:54:50.592Z,3.30
2017-11-06T19:57:18.053Z,4.13
2017-11-06T19:59:45.486Z,4.40
2017-11-06T20:02:12.937Z,6.30
2017-11-06T20:04:40.376Z,5.17
2017-11-06T20:07:08.893Z,4.60
2017-11-06T20:09:36.316Z,2.83
2017-11-06T20:12:03.743Z,3.57
2017-11-06T20:14:31.209Z,3.40
2017-11-06T20:16:59.433Z,3.43
2017-11-06T20:19:26.874Z,3.50
2017-11-06T20:21:54.340Z,2.90
2017-11-06T20:24:22.014Z,2.80
2017-11-06T20:26:49.449Z,4.20
2017-11-06T20:29:16.889Z,3.93
2017-11-06T20:31:45.223Z,4.20
2017-11-06T20:34:12.647Z,3.10
2017-11-06T20:36:40.094Z,2.80
2017-11-06T20:39:07.525Z,3.03
2017-11-06T20:41:36.057Z,3.97
2017-11-06T20:44:03.489Z,4.10
2017-11-06T20:46:30.989Z,3.73
2017-11-06T20:48:58.538Z,3.03
2017-11-06T20:51:25.996Z,4.10
2017-11-06T20:53:53.465Z,4.67
2017-11-06T20:56:20.898Z,2.90
2017-11-06T20:58:48.677Z,2.27
2017-11-06T21:01:16.141Z,2.93
2017-11-06T21:03:43.577Z,2.20
2017-11-06T21:06:11.057Z,2.83
2017-11-06T21:08:38.489Z,1.83
2017-11-06T21:11:05.933Z,2.63
2017-11-06T21:13:33.362Z,2.33
2017-11-06T21:16:01.901Z,2.43
2017-11-06T21:18:29.341Z,1.63
2017-11-06T21:20:56.776Z,2.40
2017-11-06T21:23:24.221Z,2.80
2017-11-06T21:25:52.449Z,3.40
2017-11-06T21:28:19.914Z,2.87
2017-11-06T21:30:51.266Z,2.40
2017-11-06T21:33:18.721Z,2.50
2017-11-06T21:35:46.157Z,2.73
2017-11-06T21:38:13.889Z,2.23
2017-11-06T21:40:41.325Z,2.93
2017-11-06T21:43:09.557Z,3.23
2017-11-06T21:45:37.000Z,3.63
2017-11-06T21:48:04.448Z,2.40
2017-11-06T21:50:31.892Z,3.57
2017-11-06T21:53:00.085Z,3.77
2017-11-06T21:55:27.881Z,3.80
2017-11-06T21:57:55.319Z,3.90
2017-11-06T22:00:22.786Z,2.20
2017-11-06T22:02:50.235Z,3.50
2017-11-06T22:05:17.669Z,3.37
2017-11-06T22:07:45.105Z,2.67
2017-11-06T22:10:13.320Z,3.60
2017-11-06T22:12:41.102Z,3.30
2017-11-06T22:15:08.557Z,2.60
2017-11-06T22:17:35.985Z,1.57
2017-11-06T22:20:03.427Z,2.57
2017-11-06T22:22:30.929Z,2.30
2017-11-06T22:24:58.373Z,2.23
2017-11-06T22:27:25.844Z,2.40
2017-11-06T22:29:53.613Z,2.40
2017-11-06T22:32:21.079Z,3.90
2017-11-06T22:34:48.498Z,3.83
2017-11-06T22:37:15.942Z,3.10
2017-11-06T22:39:43.442Z,2.60
2017-11-06T22:42:10.886Z,2.47
2017-11-06T22:44:38.361Z,1.83
2017-11-06T22:47:06.109Z,3.03
2017-11-06T22:49:33.542Z,3.77
2017-11-06T22:52:00.980Z,2.67
2017-11-06T22:54:29.209Z,3.30
2017-11-06T22:56:56.666Z,2.60
2017-11-06T22:59:24.100Z,1.63
2017-11-06T23:01:51.532Z,3.17
2017-11-06T23:04:20.069Z,2.33
2017-11-06T23:06:47.493Z,1.47
2017-11-06T23:09:14.922Z,1.90
2017-11-06T23:11:43.138Z,2.77
2017-11-06T23:14:10.572Z,1.80
2017-11-06T23:16:38.161Z,2.57
2017-11-06T23:19:05.577Z,2.27
2017-11-06T23:21:34.112Z,2.10
2017-11-06T23:24:01.544Z,3.43
2017-11-06T23:26:29.030Z,2.20
2017-11-06T23:28:56.585Z,2.47
2017-11-06T23:31:24.010Z,2.00
2017-11-06T23:33:51.465Z,3.30
2017-11-06T23:36:18.900Z,2.00
2017-11-06T23:38:47.434Z,2.43
2017-11-06T23:41:14.874Z,2.60
2017-11-06T23:43:42.300Z,2.83
2017-11-06T23:46:10.525Z,2.13
2017-11-06T23:48:37.953Z,2.63
2017-11-06T23:51:05.401Z,1.97
2017-11-06T23:53:32.830Z,2.17
2017-11-06T23:56:01.388Z,1.70
2017-11-06T23:58:29.237Z,3.03
